Crystal Mountain, Washington
Current Conditions -  °F | °C
As of 10:53 PM on Saturday 25 Oct 2014 (Local Time) from KRNT Reporting Station
Scattered Clouds Scattered Clouds  
Wind Chill: 54°   Ceiling: Unl
Heat Index: 54°   Visibility: 10mi
Dew Point: 48°   Wind: 15mph
Humidity: 80%   Direction: 160°SSE
Pressure: 29.69"   Gusts: 20mph
Location:  47.1782°N, 121.641°W
Report Text: KRNT 260553Z AUTO 16013G17KT 10SM SCT031 12/09 A2969 RMK AO2 PRESRR SLP058 60015 T01220089 10178 20122 51095
Loading
Personal Weather Stations






























Interactive Weather Map New forecast layout! Learn more

10-Day Weather Forecast

Advertisements
Track Severe Weather on mobile